Pagrindinis puslapis
METAR-TAF:

METAR-TAF

Oro uostai :

Ängelholm–Helsingborg

Helsingborgas, Švedija

platuma: 56-17-46N, ilguma: 012-50-50E, Aukštis: 21 m

Dabartinis oras

Ataskaita buvo paskelbta 1 valandą ir 20 minutes, ne 12:50 UTC
Vėjas 12 kt iš Šiaurės Vakarų
Temperatūra 20°C
Drėgmė 46%
Slėgis 1026 hPa
Matomumas 10 km arba daugiau

METAR: ESTA 011250Z AUTO 31012KT 9999 NCD 20/08 Q1026

Laikas: 16:10 (14:10 UTC)

Prognozė

Ataskaita buvo paskelbta 6 valandos ir 4 minutes, ne 08:06 UTC
Prognozė galioja nuo 01 metu 09 UTC su 01 metu 13 UTC
Vėjas 8 kt iš Vakarų/Šiaurės Vakarų
Matomumas 10 km arba daugiau
nėra debesų žemiau 1500 m ir nėra kamuolinių lietaus debesų

TAF: ESTA 010806Z 0109/0113 30008KT CAVOK

Orai ataskaitas ir orų prognozės (METAR, TAF).

turimą stotys yra geltonos ir raudonos taškus žemėlapyje.

Perkelti pele per norėdami pamatyti stoties vardą.

Tada spustelėkite, norėdami matyti oro stebėjimo ir prognozės.

Norėdami pakeisti žemėlapį: spustelėkite ant žalios mygtukų su juodo kryžiaus žemyn,; žalią mygtuką su brūkšneliu, jei norite nutolinti; arba žalių rodyklių gretimoms žemėlapius.


METAR-TAF: